createdAt,value
2018-06-13T00:01:20.323Z,17.10
2018-06-13T00:03:50.543Z,16.93
2018-06-13T00:06:21.484Z,17.03
2018-06-13T00:18:57.652Z,18.20
2018-06-13T00:21:34.924Z,19.03
2018-06-13T00:24:39.139Z,18.23
2018-06-13T00:27:08.964Z,19.97
2018-06-13T00:29:39.360Z,18.03
2018-06-13T00:32:09.651Z,19.30
2018-06-13T00:34:39.441Z,19.73
2018-06-13T00:37:09.175Z,19.53
2018-06-13T00:39:39.447Z,18.67
2018-06-13T00:42:09.392Z,20.00
2018-06-13T00:44:39.520Z,16.40
2018-06-13T00:47:09.247Z,19.53
2018-06-13T00:49:40.597Z,19.57
2018-06-13T00:52:10.390Z,19.83
2018-06-13T00:54:40.124Z,19.50
2018-06-13T00:57:10.165Z,18.10
2018-06-13T01:00:16.757Z,18.57
2018-06-13T01:02:47.300Z,18.87
2018-06-13T01:05:17.319Z,15.73
2018-06-13T01:07:47.249Z,15.53
2018-06-13T01:10:17.524Z,17.63
2018-06-13T01:15:29.856Z,19.63
2018-06-13T01:18:01.435Z,20.90
2018-06-13T01:20:40.483Z,20.77
2018-06-13T01:23:10.590Z,19.23
2018-06-13T01:25:50.006Z,21.70
2018-06-13T01:28:20.634Z,21.13
2018-06-13T01:30:50.792Z,20.33
2018-06-13T01:33:30.110Z,20.50
2018-06-13T01:36:00.783Z,23.70
2018-06-13T01:43:34.769Z,20.57
2018-06-13T01:46:17.769Z,18.80
2018-06-13T01:51:30.868Z,20.87
2018-06-13T01:54:16.184Z,16.87
2018-06-13T01:56:46.270Z,19.43
2018-06-13T01:59:16.223Z,20.20
2018-06-13T02:01:48.816Z,20.20
2018-06-13T02:04:18.753Z,21.80
2018-06-13T02:06:48.784Z,22.67
2018-06-13T02:09:18.738Z,22.37
2018-06-13T02:11:49.998Z,22.37
2018-06-13T02:14:19.944Z,19.33
2018-06-13T02:16:49.988Z,21.03
2018-06-13T02:19:24.121Z,20.67
2018-06-13T02:21:54.634Z,20.23
2018-06-13T02:24:24.504Z,21.20
2018-06-13T02:26:54.472Z,20.03
2018-06-13T02:29:24.373Z,22.07
2018-06-13T02:31:56.844Z,18.70
2018-06-13T02:34:26.824Z,20.13
2018-06-13T02:36:56.828Z,20.43
2018-06-13T02:39:26.682Z,21.03
2018-06-13T02:41:56.568Z,18.50
2018-06-13T02:44:26.484Z,18.80
2018-06-13T02:46:57.169Z,20.10
2018-06-13T02:49:27.347Z,20.73
2018-06-13T02:51:57.266Z,22.87
2018-06-13T02:54:27.118Z,17.80
2018-06-13T02:56:57.056Z,20.23
2018-06-13T02:59:26.917Z,19.90
2018-06-13T03:01:57.159Z,20.37
2018-06-13T03:04:27.072Z,19.23
2018-06-13T03:06:57.021Z,19.47
2018-06-13T03:09:26.908Z,19.63
2018-06-13T03:12:24.654Z,19.10
2018-06-13T03:14:55.149Z,21.80
2018-06-13T03:17:25.671Z,18.43
2018-06-13T03:19:57.997Z,17.57
2018-06-13T03:28:23.812Z,19.13
2018-06-13T03:30:53.746Z,19.97
2018-06-13T03:33:23.324Z,18.60
2018-06-13T03:35:54.384Z,19.03
2018-06-13T03:38:24.196Z,16.40
2018-06-13T03:40:53.879Z,19.83
2018-06-13T03:43:23.729Z,17.33
2018-06-13T03:45:53.737Z,17.13
2018-06-13T03:48:23.251Z,16.07
2018-06-13T03:50:53.612Z,16.27
2018-06-13T03:54:21.563Z,16.47
2018-06-13T03:56:51.161Z,14.87
2018-06-13T03:59:21.670Z,15.23
2018-06-13T04:01:51.331Z,13.70
2018-06-13T04:04:21.477Z,13.77
2018-06-13T04:06:51.051Z,15.87
2018-06-13T04:09:22.814Z,13.83
2018-06-13T04:11:52.463Z,14.60
2018-06-13T04:14:21.941Z,13.73
2018-06-13T04:16:51.435Z,14.83
2018-06-13T04:19:22.269Z,14.90
2018-06-13T04:21:52.125Z,12.60
2018-06-13T04:24:21.528Z,13.33
2018-06-13T04:26:56.616Z,11.93
2018-06-13T04:29:28.923Z,14.03
2018-06-13T05:24:36.013Z,16.57
2018-06-13T05:27:07.080Z,16.47
2018-06-13T05:29:36.824Z,17.50
2018-06-13T05:32:06.499Z,15.70
2018-06-13T05:34:37.378Z,15.40
2018-06-13T05:37:25.643Z,15.90
2018-06-13T05:39:55.920Z,14.33
2018-06-13T05:42:25.430Z,15.67
2018-06-13T05:45:01.292Z,15.70
2018-06-13T05:47:31.007Z,14.53
2018-06-13T05:50:00.426Z,15.23
2018-06-13T05:52:30.204Z,15.97
2018-06-13T05:55:00.591Z,16.03
2018-06-13T05:57:30.006Z,16.33
2018-06-13T05:59:59.656Z,15.83
2018-06-13T06:02:29.054Z,15.50
2018-06-13T06:04:58.495Z,14.93
2018-06-13T06:07:27.863Z,14.23
2018-06-13T06:09:57.797Z,14.80
2018-06-13T06:12:27.237Z,14.83
2018-06-13T06:14:59.626Z,13.40
2018-06-13T06:17:29.466Z,15.03
2018-06-13T06:19:59.076Z,13.73
2018-06-13T06:22:28.477Z,12.43
2018-06-13T06:24:57.961Z,14.07
2018-06-13T06:27:32.611Z,12.50
2018-06-13T06:30:02.026Z,12.20
2018-06-13T06:32:31.408Z,12.43
2018-06-13T06:35:01.325Z,11.87
2018-06-13T06:37:30.793Z,12.30
2018-06-13T06:40:00.344Z,11.20
2018-06-13T06:42:29.821Z,11.03
2018-06-13T06:44:59.522Z,9.40
2018-06-13T06:47:28.953Z,8.90
2018-06-13T06:49:58.416Z,9.37
2018-06-13T06:52:27.865Z,8.80
2018-06-13T06:54:57.740Z,7.57
2018-06-13T06:57:27.324Z,8.17
2018-06-13T06:59:56.962Z,8.30
2018-06-13T07:02:26.557Z,7.13
2018-06-13T07:04:56.141Z,7.40
2018-06-13T07:07:25.616Z,9.20
2018-06-13T07:09:56.385Z,7.93
2018-06-13T07:12:26.053Z,7.80
2018-06-13T07:14:55.942Z,8.47
2018-06-13T07:17:25.668Z,7.13
2018-06-13T07:19:55.095Z,6.87
2018-06-13T07:22:24.487Z,7.00
2018-06-13T07:24:53.893Z,6.53
2018-06-13T07:27:23.629Z,7.30
2018-06-13T07:29:53.076Z,8.73
2018-06-13T07:32:22.770Z,8.10
2018-06-13T07:34:52.216Z,7.50
2018-06-13T07:37:21.709Z,8.60
2018-06-13T07:39:51.135Z,8.97
2018-06-13T07:42:22.003Z,9.43
2018-06-13T07:44:51.415Z,8.70
2018-06-13T07:47:20.824Z,9.70
2018-06-13T07:49:50.227Z,8.93
2018-06-13T07:52:23.492Z,9.17
2018-06-13T07:54:52.977Z,9.70
2018-06-13T07:57:22.421Z,9.23
2018-06-13T07:59:51.824Z,9.07
2018-06-13T08:02:21.676Z,8.60
2018-06-13T08:04:51.045Z,9.77
2018-06-13T08:07:20.458Z,10.07
2018-06-13T08:09:49.903Z,8.93
2018-06-13T08:12:20.186Z,10.27
2018-06-13T08:14:49.605Z,9.63
2018-06-13T08:17:19.139Z,10.53
2018-06-13T08:19:48.685Z,9.67
2018-06-13T08:22:18.452Z,10.27
2018-06-13T08:24:55.204Z,9.80
2018-06-13T08:27:24.674Z,10.97
2018-06-13T08:29:54.367Z,10.87
2018-06-13T08:32:24.453Z,11.20
2018-06-13T08:34:53.838Z,10.57
2018-06-13T08:37:24.582Z,9.47
2018-06-13T08:39:54.109Z,10.83
2018-06-13T08:42:23.628Z,9.63
2018-06-13T08:44:52.960Z,9.40
2018-06-13T08:47:23.275Z,9.53
2018-06-13T08:49:52.688Z,10.40
2018-06-13T08:52:22.187Z,9.60
2018-06-13T08:54:51.561Z,9.37
2018-06-13T08:57:21.300Z,8.37
2018-06-13T08:59:50.949Z,9.33
2018-06-13T09:02:20.393Z,8.03
2018-06-13T09:04:50.294Z,7.57
2018-06-13T09:07:19.701Z,7.67
2018-06-13T09:09:49.095Z,7.60
2018-06-13T09:12:19.005Z,7.30
2018-06-13T09:14:48.456Z,6.57
2018-06-13T09:17:18.299Z,7.73
2018-06-13T09:19:47.709Z,7.20
2018-06-13T09:22:17.405Z,6.07
2018-06-13T09:24:47.064Z,6.47
2018-06-13T09:27:16.505Z,6.20
2018-06-13T09:29:45.963Z,6.17
2018-06-13T09:32:15.431Z,6.37
2018-06-13T09:34:44.785Z,5.97
2018-06-13T09:37:14.514Z,5.73
2018-06-13T09:39:43.962Z,5.83
2018-06-13T09:42:13.357Z,6.27
2018-06-13T09:44:42.766Z,6.20
2018-06-13T09:47:15.130Z,5.73
2018-06-13T09:49:42.244Z,5.77
2018-06-13T09:52:11.899Z,5.87
2018-06-13T09:54:41.287Z,5.60
2018-06-13T09:57:10.669Z,5.33
2018-06-13T09:59:45.612Z,5.53
2018-06-13T10:02:18.534Z,5.83
2018-06-13T10:04:48.648Z,4.87
2018-06-13T10:07:20.352Z,5.10
2018-06-13T10:09:50.032Z,5.13
2018-06-13T10:12:19.615Z,4.93
2018-06-13T10:14:49.176Z,4.67
2018-06-13T10:17:18.638Z,5.67
2018-06-13T10:19:48.296Z,5.00
2018-06-13T10:22:17.824Z,4.80
2018-06-13T10:24:47.200Z,4.70
2018-06-13T10:27:22.106Z,3.70
2018-06-13T10:29:51.451Z,4.87
2018-06-13T10:32:20.820Z,4.33
2018-06-13T10:34:50.492Z,4.50
2018-06-13T10:37:19.933Z,3.90
2018-06-13T10:39:49.388Z,4.63
2018-06-13T10:42:19.208Z,4.13
2018-06-13T10:44:48.799Z,4.10
2018-06-13T10:47:18.311Z,4.23
2018-06-13T10:49:47.971Z,3.70
2018-06-13T10:52:17.375Z,3.70
2018-06-13T10:54:46.718Z,3.83
2018-06-13T10:57:16.415Z,4.20
2018-06-13T10:59:45.843Z,4.47
2018-06-13T11:02:15.294Z,4.00
2018-06-13T11:04:45.122Z,4.00
2018-06-13T11:07:14.516Z,4.00
2018-06-13T11:09:43.942Z,4.07
2018-06-13T11:12:13.860Z,4.43
2018-06-13T11:14:43.230Z,3.80
2018-06-13T11:17:12.635Z,3.60
2018-06-13T11:19:42.294Z,4.13
2018-06-13T11:22:11.687Z,3.80
2018-06-13T11:24:41.343Z,4.23
2018-06-13T11:27:11.269Z,3.97
2018-06-13T11:29:40.676Z,4.23
2018-06-13T11:32:10.043Z,3.80
2018-06-13T11:34:41.897Z,3.97
2018-06-13T11:37:11.266Z,4.00
2018-06-13T11:39:40.653Z,4.53
2018-06-13T11:42:10.353Z,4.83
2018-06-13T11:44:39.702Z,3.60
2018-06-13T11:47:09.272Z,4.07
2018-06-13T11:49:38.708Z,4.23
2018-06-13T11:52:08.443Z,3.77
2018-06-13T11:54:37.984Z,3.73
2018-06-13T11:57:07.724Z,3.93
2018-06-13T11:59:37.447Z,3.53
2018-06-13T12:02:07.497Z,4.00
2018-06-13T12:04:37.026Z,3.63
2018-06-13T12:07:06.589Z,3.90
2018-06-13T12:09:36.639Z,3.80
2018-06-13T12:12:06.377Z,3.73
2018-06-13T12:14:35.992Z,4.33
2018-06-13T12:17:07.306Z,3.87
2018-06-13T12:19:36.785Z,4.40
2018-06-13T12:22:06.569Z,4.27
2018-06-13T12:24:37.761Z,3.77
2018-06-13T12:27:07.504Z,4.30
2018-06-13T12:29:36.936Z,4.30
2018-06-13T12:32:11.429Z,3.87
2018-06-13T12:34:40.934Z,4.60
2018-06-13T12:37:10.295Z,4.47
2018-06-13T12:39:42.293Z,4.73
2018-06-13T12:42:11.701Z,4.77
2018-06-13T12:44:41.128Z,4.80
2018-06-13T12:47:10.941Z,4.97
2018-06-13T12:49:40.447Z,4.47
2018-06-13T12:52:09.901Z,4.70
2018-06-13T12:54:39.645Z,4.47
2018-06-13T12:57:09.058Z,4.23
2018-06-13T12:59:38.448Z,4.30
2018-06-13T13:02:08.305Z,3.80
2018-06-13T13:04:37.799Z,3.80
2018-06-13T13:07:07.351Z,4.07
2018-06-13T13:09:37.148Z,4.40
2018-06-13T13:12:06.776Z,4.10
2018-06-13T13:14:37.208Z,3.93
2018-06-13T13:17:08.176Z,4.27
2018-06-13T13:19:37.869Z,4.53
2018-06-13T13:22:07.773Z,4.33
2018-06-13T13:24:37.518Z,4.50
2018-06-13T13:27:07.089Z,3.97
2018-06-13T13:29:36.661Z,4.47
2018-06-13T13:32:06.502Z,4.50
2018-06-13T13:34:37.121Z,4.90
2018-06-13T13:37:07.196Z,4.30
2018-06-13T13:39:39.264Z,4.07
2018-06-13T13:42:08.900Z,3.93
2018-06-13T13:44:38.448Z,4.03
2018-06-13T13:47:10.322Z,4.13
2018-06-13T13:49:39.694Z,3.83
2018-06-13T13:52:09.276Z,3.83
2018-06-13T13:54:39.131Z,3.60
2018-06-13T13:57:08.600Z,3.73
2018-06-13T13:59:38.025Z,3.77
2018-06-13T14:02:08.265Z,3.67
2018-06-13T14:04:37.720Z,3.57
2018-06-13T14:07:07.247Z,3.30
2018-06-13T14:09:38.438Z,3.37
2018-06-13T14:12:08.117Z,3.23
2018-06-13T14:14:37.612Z,3.70
2018-06-13T14:17:08.543Z,3.03
2018-06-13T14:19:37.971Z,3.30
2018-06-13T14:22:07.590Z,3.47
2018-06-13T14:24:37.270Z,2.77
2018-06-13T14:27:06.776Z,3.00
2018-06-13T14:29:46.698Z,3.63
2018-06-13T14:32:16.670Z,3.33
2018-06-13T14:34:46.095Z,3.53
2018-06-13T14:37:15.780Z,3.07
2018-06-13T14:39:46.327Z,3.00
2018-06-13T14:42:15.932Z,3.13
2018-06-13T14:44:45.472Z,3.27
2018-06-13T14:47:15.119Z,3.10
2018-06-13T14:49:44.459Z,3.10
2018-06-13T14:52:13.868Z,3.30
2018-06-13T14:54:43.643Z,2.80
2018-06-13T14:57:13.048Z,3.20
2018-06-13T14:59:42.661Z,3.20
2018-06-13T15:02:13.245Z,3.20
2018-06-13T15:04:45.189Z,3.17
2018-06-13T15:07:14.572Z,2.97
2018-06-13T15:09:45.338Z,6.13
2018-06-13T15:12:14.771Z,3.30
2018-06-13T15:14:44.208Z,3.00
2018-06-13T15:17:13.923Z,2.73
2018-06-13T15:19:43.549Z,3.37
2018-06-13T15:22:13.585Z,3.10
2018-06-13T15:24:43.032Z,2.80
2018-06-13T15:27:12.954Z,2.87
2018-06-13T15:29:42.612Z,3.50
2018-06-13T15:32:12.796Z,3.30
2018-06-13T15:34:42.456Z,2.87
2018-06-13T15:37:12.067Z,2.93
2018-06-13T15:39:43.820Z,3.27
2018-06-13T15:42:13.258Z,3.10
2018-06-13T15:44:42.760Z,2.57
2018-06-13T15:47:13.132Z,3.07
2018-06-13T15:49:42.652Z,3.00
2018-06-13T15:52:12.193Z,2.50
2018-06-13T15:54:41.675Z,2.80
2018-06-13T15:57:11.460Z,2.80
2018-06-13T15:59:40.929Z,3.00
2018-06-13T16:02:11.048Z,2.80
2018-06-13T16:04:40.488Z,3.10
2018-06-13T16:07:10.104Z,2.50
2018-06-13T16:09:40.220Z,2.80
2018-06-13T16:12:09.757Z,2.70
2018-06-13T16:14:39.218Z,2.80
2018-06-13T16:17:08.921Z,3.03
2018-06-13T16:19:39.658Z,2.90
2018-06-13T16:22:09.250Z,3.40
2018-06-13T16:24:38.895Z,2.90
2018-06-13T16:27:08.507Z,10.03
2018-06-13T16:29:37.920Z,3.63
2018-06-13T16:32:08.250Z,2.80
2018-06-13T16:34:38.199Z,2.83
2018-06-13T16:37:08.588Z,3.10
2018-06-13T16:39:39.647Z,2.80
2018-06-13T16:42:14.777Z,2.90
2018-06-13T16:44:44.487Z,3.53
2018-06-13T16:47:14.184Z,3.93
2018-06-13T16:49:44.061Z,3.63
2018-06-13T16:52:25.710Z,3.47
2018-06-13T16:55:03.489Z,3.13
2018-06-13T16:57:33.248Z,3.37
2018-06-13T17:00:03.518Z,3.30
2018-06-13T17:02:34.786Z,3.30
2018-06-13T17:05:05.912Z,3.70
2018-06-13T17:07:39.299Z,3.70
2018-06-13T17:10:09.729Z,3.63
2018-06-13T17:12:41.132Z,3.07
2018-06-13T17:15:12.484Z,3.20
2018-06-13T17:17:42.394Z,3.33
2018-06-13T17:20:13.546Z,3.17
2018-06-13T17:22:43.033Z,2.80
2018-06-13T17:25:13.011Z,3.27
2018-06-13T17:27:43.562Z,3.20
2018-06-13T17:30:13.111Z,4.90
2018-06-13T17:32:43.232Z,3.70
2018-06-13T17:35:14.408Z,4.60
2018-06-13T17:37:43.965Z,3.83
2018-06-13T17:40:13.838Z,3.73
2018-06-13T17:42:44.498Z,4.40
2018-06-13T17:45:20.486Z,3.60
2018-06-13T17:47:50.582Z,4.10
2018-06-13T17:50:21.852Z,3.63
2018-06-13T17:52:52.449Z,4.30
2018-06-13T17:55:28.401Z,4.00
2018-06-13T17:57:58.305Z,3.33
2018-06-13T18:00:27.899Z,3.10
2018-06-13T18:02:57.660Z,2.90
2018-06-13T18:05:28.041Z,3.03
2018-06-13T18:07:58.180Z,3.20
2018-06-13T18:10:30.738Z,3.23
2018-06-13T18:13:00.211Z,3.60
2018-06-13T18:15:30.947Z,3.47
2018-06-13T18:18:01.500Z,3.30
2018-06-13T18:20:34.290Z,3.10
2018-06-13T18:23:04.436Z,3.20
2018-06-13T18:25:33.878Z,3.40
2018-06-13T18:28:03.889Z,3.30
2018-06-13T18:30:33.948Z,3.50
2018-06-13T18:33:03.509Z,3.20
2018-06-13T18:35:33.020Z,2.90
2018-06-13T18:38:03.037Z,3.57
2018-06-13T18:40:32.711Z,3.60
2018-06-13T18:43:02.389Z,3.83
2018-06-13T18:45:32.067Z,3.70
2018-06-13T18:48:01.661Z,4.20
2018-06-13T18:50:31.144Z,4.30
2018-06-13T18:53:00.945Z,4.00
2018-06-13T18:55:30.899Z,3.90
2018-06-13T18:58:00.418Z,3.37
2018-06-13T19:00:30.607Z,4.20
2018-06-13T19:03:00.188Z,4.90
2018-06-13T19:05:30.309Z,4.57
2018-06-13T19:08:00.150Z,3.80
2018-06-13T19:10:30.045Z,4.20
2018-06-13T19:12:59.492Z,5.33
2018-06-13T19:15:29.187Z,4.37
2018-06-13T19:17:59.260Z,4.23
2018-06-13T19:20:29.411Z,3.87
2018-06-13T19:23:00.706Z,3.93
2018-06-13T19:25:30.401Z,4.00
2018-06-13T19:27:59.974Z,3.47
2018-06-13T19:30:30.043Z,5.67
2018-06-13T19:32:59.668Z,4.70
2018-06-13T19:35:29.413Z,3.87
2018-06-13T19:37:59.433Z,4.07
2018-06-13T19:40:28.884Z,4.30
2018-06-13T19:42:58.321Z,4.13
2018-06-13T19:45:28.344Z,3.90
2018-06-13T19:48:03.213Z,3.90
2018-06-13T19:50:32.664Z,4.23
2018-06-13T19:53:07.471Z,4.10
2018-06-13T19:55:42.312Z,3.93
2018-06-13T19:58:12.115Z,3.97
2018-06-13T20:00:41.681Z,4.60
2018-06-13T20:03:16.450Z,4.73
2018-06-13T20:05:46.255Z,7.30
2018-06-13T20:08:15.641Z,4.63
2018-06-13T20:10:45.034Z,4.10
2018-06-13T20:13:19.932Z,3.83
2018-06-13T20:15:54.453Z,4.80
2018-06-13T20:18:29.220Z,4.07
2018-06-13T20:20:58.622Z,4.10
2018-06-13T20:23:28.066Z,4.03
2018-06-13T20:26:02.908Z,3.97
2018-06-13T20:28:37.707Z,4.33
2018-06-13T20:31:12.509Z,3.87
2018-06-13T20:33:42.055Z,3.90
2018-06-13T20:36:11.699Z,3.93
2018-06-13T20:38:41.726Z,4.40
2018-06-13T20:41:11.128Z,4.17
2018-06-13T20:43:42.385Z,5.57
2018-06-13T20:46:12.034Z,4.60
2018-06-13T20:48:41.457Z,4.37
2018-06-13T20:51:11.432Z,6.60
2018-06-13T20:53:40.776Z,5.37
2018-06-13T20:56:10.227Z,4.10
2018-06-13T20:58:39.926Z,4.07
2018-06-13T21:01:09.597Z,4.37
2018-06-13T21:03:39.295Z,3.90
2018-06-13T21:06:10.505Z,4.17
2018-06-13T21:08:40.141Z,4.53
2018-06-13T21:11:09.735Z,4.10
2018-06-13T21:13:41.555Z,4.27
2018-06-13T21:16:11.724Z,4.80
2018-06-13T21:24:46.183Z,6.17
2018-06-13T21:27:15.926Z,3.43
2018-06-13T21:29:45.330Z,3.63
2018-06-13T21:32:14.808Z,3.60
2018-06-13T21:34:44.329Z,4.47
2018-06-13T21:37:13.949Z,3.93
2018-06-13T21:39:43.392Z,3.40
2018-06-13T21:42:13.163Z,3.37
2018-06-13T21:44:44.484Z,4.40
2018-06-13T21:47:14.046Z,3.97
2018-06-13T21:49:44.280Z,3.43
2018-06-13T21:52:13.963Z,4.17
2018-06-13T21:54:43.381Z,3.40
2018-06-13T21:57:13.048Z,4.03
2018-06-13T21:59:43.903Z,4.30
2018-06-13T22:02:13.283Z,4.03
2018-06-13T22:04:42.730Z,4.10
2018-06-13T22:07:12.547Z,4.10
2018-06-13T22:09:42.004Z,4.57
2018-06-13T22:12:11.473Z,4.20
2018-06-13T22:14:42.574Z,4.40
2018-06-13T22:17:13.535Z,4.20
2018-06-13T22:19:43.041Z,4.03
2018-06-13T22:22:12.748Z,4.30
2018-06-13T22:24:42.109Z,4.00
2018-06-13T22:27:11.870Z,4.03
2018-06-13T22:29:41.550Z,4.10
2018-06-13T22:32:11.178Z,4.30
2018-06-13T22:34:40.564Z,4.60
2018-06-13T22:37:10.184Z,4.93
2018-06-13T22:39:39.598Z,4.60
2018-06-13T22:42:09.284Z,4.57
2018-06-13T22:44:38.995Z,4.60
2018-06-13T22:47:08.443Z,4.73
2018-06-13T22:49:37.954Z,4.47
2018-06-13T22:55:02.381Z,4.87
2018-06-13T22:57:32.454Z,4.70
2018-06-13T23:00:02.291Z,4.53
2018-06-13T23:02:32.258Z,4.40
2018-06-13T23:05:02.471Z,4.10
2018-06-13T23:07:33.156Z,4.73
2018-06-13T23:10:02.848Z,4.83
2018-06-13T23:12:32.510Z,4.40
2018-06-13T23:15:02.387Z,4.80
2018-06-13T23:17:34.527Z,4.33
2018-06-13T23:20:05.132Z,4.70
2018-06-13T23:22:34.772Z,4.63
2018-06-13T23:25:05.208Z,4.50
2018-06-13T23:27:34.872Z,5.17
2018-06-13T23:30:04.668Z,5.87
2018-06-13T23:32:34.493Z,5.40
2018-06-13T23:35:08.130Z,4.80
2018-06-13T23:37:37.828Z,4.53
2018-06-13T23:40:11.345Z,4.40
2018-06-13T23:42:42.366Z,5.40
2018-06-13T23:45:13.285Z,4.20
2018-06-13T23:47:44.193Z,4.30
2018-06-13T23:50:14.908Z,4.97
2018-06-13T23:52:45.028Z,4.60
2018-06-13T23:55:16.825Z,4.30
2018-06-13T23:57:47.029Z,4.83
